createdAt,value
2023-02-11T00:00:06.097Z,100768.51
2023-02-11T00:02:32.685Z,100760.35
2023-02-11T00:05:00.767Z,100760.36
2023-02-11T00:07:28.957Z,100761.18
2023-02-11T00:09:54.872Z,100760.66
2023-02-11T00:12:21.245Z,100769.41
2023-02-11T00:14:47.635Z,100771.46
2023-02-11T00:17:13.766Z,100769.63
2023-02-11T00:19:39.727Z,100765.41
2023-02-11T00:22:05.833Z,100762.79
2023-02-11T00:24:31.861Z,100764.75
2023-02-11T00:26:57.780Z,100754.01
2023-02-11T00:29:23.893Z,100754.77
2023-02-11T00:31:49.901Z,100748.84
2023-02-11T00:34:15.961Z,100741.22
2023-02-11T00:36:42.089Z,100747.20
2023-02-11T00:39:08.100Z,100742.96
2023-02-11T00:41:34.804Z,100735.04
2023-02-11T00:44:01.711Z,100730.24
2023-02-11T00:46:27.854Z,100730.11
2023-02-11T00:48:57.014Z,100726.14
2023-02-11T00:51:27.033Z,100726.73
2023-02-11T00:53:53.257Z,100727.33
2023-02-11T00:56:19.378Z,100726.76
2023-02-11T00:58:45.319Z,100731.94
2023-02-11T01:01:11.954Z,100721.88
2023-02-11T01:03:38.066Z,100712.30
2023-02-11T01:06:05.248Z,100695.98
2023-02-11T01:08:31.244Z,100696.56
2023-02-11T01:10:58.914Z,100670.77
2023-02-11T01:13:25.144Z,100660.41
2023-02-11T01:15:53.978Z,100656.31
2023-02-11T01:18:19.998Z,100652.21
2023-02-11T01:20:46.973Z,100651.32
2023-02-11T01:23:12.895Z,100637.92
2023-02-11T01:25:38.788Z,100634.86
2023-02-11T01:28:04.912Z,100624.48
2023-02-11T01:30:30.870Z,100611.75
2023-02-11T01:32:56.757Z,100608.80
2023-02-11T01:35:22.651Z,100602.60
2023-02-11T01:37:49.471Z,100601.65
2023-02-11T01:40:16.322Z,100596.02
2023-02-11T01:42:43.349Z,100601.48
2023-02-11T01:45:40.569Z,100603.90
2023-02-11T01:48:06.512Z,100600.86
2023-02-11T01:50:32.971Z,100599.64
2023-02-11T01:53:18.974Z,100601.52
2023-02-11T01:56:04.210Z,100595.53
2023-02-11T01:58:30.163Z,100592.23
2023-02-11T02:00:56.176Z,100584.05
2023-02-11T02:03:22.124Z,100574.69
2023-02-11T02:05:58.816Z,100563.29
2023-02-11T02:08:52.681Z,100561.27
2023-02-11T02:11:18.789Z,100557.19
2023-02-11T02:13:45.093Z,100553.60
2023-02-11T02:16:13.432Z,100550.85
2023-02-11T02:19:02.759Z,100540.88
2023-02-11T02:22:06.879Z,100530.02
2023-02-11T02:25:00.383Z,100520.52
2023-02-11T02:27:37.741Z,100512.23
2023-02-11T02:30:29.415Z,100506.26
2023-02-11T02:33:27.977Z,100501.95
2023-02-11T02:35:59.607Z,100496.35
2023-02-11T02:38:53.582Z,100496.48
2023-02-11T02:41:23.218Z,100501.10
2023-02-11T02:43:50.046Z,100503.56
2023-02-11T02:46:20.007Z,100499.08
2023-02-11T02:48:46.593Z,100501.92
2023-02-11T02:51:15.214Z,100501.19
2023-02-11T02:54:00.145Z,100502.98
2023-02-11T02:56:55.330Z,100510.20
2023-02-11T02:59:50.855Z,100521.92
2023-02-11T03:02:26.514Z,100532.11
2023-02-11T03:05:04.518Z,100540.02
2023-02-11T03:07:36.460Z,100535.62
2023-02-11T03:10:25.140Z,100515.28
2023-02-11T03:12:51.090Z,100470.09
2023-02-11T03:15:17.175Z,100416.89
2023-02-11T03:17:45.656Z,100393.17
2023-02-11T03:20:13.007Z,100392.20
2023-02-11T03:22:57.013Z,100411.84
2023-02-11T03:25:28.569Z,100437.70
2023-02-11T03:28:27.133Z,100429.48
2023-02-11T03:30:56.811Z,100436.95
2023-02-11T03:33:37.092Z,100435.61
2023-02-11T03:36:05.631Z,100435.58
2023-02-11T03:38:34.128Z,100437.91
2023-02-11T03:41:00.163Z,100436.19
2023-02-11T03:43:39.058Z,100436.66
2023-02-11T03:46:04.996Z,100431.44
2023-02-11T03:48:33.376Z,100432.73
2023-02-11T03:51:00.643Z,100430.70
2023-02-11T03:53:26.565Z,100427.98
2023-02-11T03:55:53.510Z,100421.33
2023-02-11T03:58:19.438Z,100409.98
2023-02-11T04:00:45.555Z,100397.95
2023-02-11T04:03:12.218Z,100390.81
2023-02-11T04:05:38.324Z,100382.50
2023-02-11T04:08:04.502Z,100367.54
2023-02-11T04:10:30.416Z,100360.08
2023-02-11T04:12:56.407Z,100363.23
2023-02-11T04:15:22.704Z,100371.58
2023-02-11T04:17:48.609Z,100374.31
2023-02-11T04:20:14.524Z,100373.28
2023-02-11T04:22:40.415Z,100360.70
2023-02-11T04:25:07.325Z,100352.23
2023-02-11T04:27:33.358Z,100346.55
2023-02-11T04:29:59.385Z,100337.91
2023-02-11T04:32:25.302Z,100334.11
2023-02-11T04:34:51.437Z,100327.19
2023-02-11T04:37:17.395Z,100322.71
2023-02-11T04:39:43.324Z,100322.55
2023-02-11T04:42:10.086Z,100320.00
2023-02-11T04:44:35.994Z,100306.52
2023-02-11T04:47:01.929Z,100298.30
2023-02-11T04:49:27.928Z,100289.73
2023-02-11T04:51:53.851Z,100290.31
2023-02-11T04:54:19.837Z,100298.30
2023-02-11T04:56:45.855Z,100302.27
2023-02-11T04:59:12.707Z,100302.77
2023-02-11T05:01:39.377Z,100301.89
2023-02-11T05:04:05.437Z,100307.29
2023-02-11T05:06:31.350Z,100300.54
2023-02-11T05:08:57.257Z,100301.48
2023-02-11T05:11:23.941Z,100296.05
2023-02-11T05:13:50.074Z,100292.11
2023-02-11T05:16:16.392Z,100299.21
2023-02-11T05:18:43.025Z,100304.58
2023-02-11T05:21:11.105Z,100300.03
2023-02-11T05:23:37.766Z,100293.61
2023-02-11T05:26:03.878Z,100291.72
2023-02-11T05:28:29.862Z,100295.05
2023-02-11T05:30:56.193Z,100287.35
2023-02-11T05:33:22.248Z,100280.98
2023-02-11T05:35:48.444Z,100281.39
2023-02-11T05:38:14.606Z,100279.48
2023-02-11T05:40:40.505Z,100266.50
2023-02-11T05:43:06.395Z,100265.54
2023-02-11T05:45:32.666Z,100258.17
2023-02-11T05:47:58.558Z,100254.47
2023-02-11T05:50:24.621Z,100255.77
2023-02-11T05:52:52.282Z,100260.44
2023-02-11T05:55:18.473Z,100261.20
2023-02-11T05:57:44.438Z,100253.41
2023-02-11T06:00:11.138Z,100253.70
2023-02-11T06:02:39.928Z,100249.48
2023-02-11T06:05:06.685Z,100247.08
2023-02-11T06:07:32.589Z,100247.56
2023-02-11T06:09:58.983Z,100234.86
2023-02-11T06:12:24.884Z,100235.24
2023-02-11T06:14:50.787Z,100237.20
2023-02-11T06:17:16.825Z,100241.09
2023-02-11T06:19:42.744Z,100244.11
2023-02-11T06:22:08.654Z,100248.36
2023-02-11T06:24:58.492Z,100244.82
2023-02-11T06:27:20.663Z,100234.98
2023-02-11T06:29:47.219Z,100231.55
2023-02-11T06:32:33.554Z,100234.00
2023-02-11T06:34:59.838Z,100230.30
2023-02-11T06:37:25.874Z,100226.98
2023-02-11T06:39:51.802Z,100225.11
2023-02-11T06:42:17.681Z,100214.51
2023-02-11T06:44:44.075Z,100217.70
2023-02-11T06:47:10.047Z,100213.21
2023-02-11T06:49:36.000Z,100210.20
2023-02-11T06:52:02.846Z,100199.54
2023-02-11T06:54:28.719Z,100206.11
2023-02-11T06:56:54.616Z,100215.16
2023-02-11T06:59:20.599Z,100208.77
2023-02-11T07:01:46.683Z,100198.31
2023-02-11T07:04:14.097Z,100190.73
2023-02-11T07:06:40.078Z,100184.70
2023-02-11T07:09:06.349Z,100185.73
2023-02-11T07:11:32.403Z,100189.10
2023-02-11T07:14:07.724Z,100182.41
2023-02-11T07:16:33.965Z,100175.22
2023-02-11T07:19:00.059Z,100188.02
2023-02-11T07:21:26.212Z,100183.86
2023-02-11T07:23:52.176Z,100184.23
2023-02-11T07:26:20.593Z,100181.79
2023-02-11T07:28:46.611Z,100183.15
2023-02-11T07:31:16.896Z,100195.45
2023-02-11T07:33:45.139Z,100207.54
2023-02-11T07:36:11.548Z,100210.13
2023-02-11T07:38:37.631Z,100209.23
2023-02-11T07:41:05.098Z,100214.14
2023-02-11T07:43:31.578Z,100215.70
2023-02-11T07:45:57.636Z,100221.34
2023-02-11T07:48:23.621Z,100222.02
2023-02-11T07:50:49.559Z,100215.17
2023-02-11T07:53:15.559Z,100216.20
2023-02-11T07:55:44.735Z,100209.73
2023-02-11T07:58:10.646Z,100196.17
2023-02-11T08:00:36.715Z,100192.05
2023-02-11T08:03:03.251Z,100190.17
2023-02-11T08:05:29.973Z,100189.20
2023-02-11T08:07:55.895Z,100190.91
2023-02-11T08:10:21.934Z,100183.52
2023-02-11T08:12:47.868Z,100190.67
2023-02-11T08:15:13.878Z,100186.84
2023-02-11T08:17:39.805Z,100183.60
2023-02-11T08:20:06.718Z,100187.98
2023-02-11T08:22:33.613Z,100195.17
2023-02-11T08:24:59.874Z,100192.10
2023-02-11T08:27:26.036Z,100192.73
2023-02-11T08:29:55.021Z,100190.55
2023-02-11T08:32:21.317Z,100187.45
2023-02-11T08:34:51.597Z,100185.42
2023-02-11T08:37:18.232Z,100184.13
2023-02-11T08:39:46.691Z,100176.17
2023-02-11T08:42:14.867Z,100173.60
2023-02-11T08:44:40.834Z,100171.61
2023-02-11T08:47:06.812Z,100164.42
2023-02-11T08:49:33.468Z,100171.23
2023-02-11T08:52:03.397Z,100165.86
2023-02-11T08:54:30.468Z,100168.01
2023-02-11T08:56:56.441Z,100162.75
2023-02-11T08:59:22.451Z,100157.45
2023-02-11T09:01:48.535Z,100155.92
2023-02-11T09:04:14.612Z,100153.90
2023-02-11T09:06:40.739Z,100151.29
2023-02-11T09:09:10.551Z,100141.48
2023-02-11T09:11:36.455Z,100132.02
2023-02-11T09:14:03.011Z,100125.92
2023-02-11T09:16:32.372Z,100120.46
2023-02-11T09:18:59.194Z,100115.60
2023-02-11T09:21:25.561Z,100119.14
2023-02-11T09:23:51.576Z,100109.20
2023-02-11T09:26:25.415Z,100109.50
2023-02-11T09:28:51.546Z,100095.94
2023-02-11T09:31:19.773Z,100087.01
2023-02-11T09:33:49.868Z,100080.40
2023-02-11T09:36:17.914Z,100072.29
2023-02-11T09:38:44.241Z,100071.27
2023-02-11T09:41:23.132Z,100069.58
2023-02-11T09:43:56.398Z,100065.00
2023-02-11T09:46:22.684Z,100053.38
2023-02-11T09:48:49.615Z,100045.05
2023-02-11T09:51:29.202Z,100043.73
2023-02-11T09:54:00.292Z,100039.55
2023-02-11T09:56:26.888Z,100036.17
2023-02-11T09:58:53.604Z,100042.88
2023-02-11T10:01:46.696Z,100049.80
2023-02-11T10:04:18.790Z,100051.17
2023-02-11T10:06:46.919Z,100058.36
2023-02-11T10:09:33.915Z,100071.13
2023-02-11T10:12:09.025Z,100082.40
2023-02-11T10:15:01.213Z,100083.13
2023-02-11T10:17:51.591Z,100082.38
2023-02-11T10:20:32.907Z,100083.99
2023-02-11T10:23:03.502Z,100085.42
2023-02-11T10:25:43.682Z,100085.77
2023-02-11T10:28:14.423Z,100075.91
2023-02-11T10:30:58.987Z,100070.14
2023-02-11T10:33:31.854Z,100065.61
2023-02-11T10:35:58.465Z,100057.39
2023-02-11T10:38:24.496Z,100051.75
2023-02-11T10:40:50.717Z,100046.85
2023-02-11T10:43:17.894Z,100041.16
2023-02-11T10:45:48.510Z,100035.86
2023-02-11T10:48:36.494Z,100038.30
2023-02-11T10:51:07.299Z,100043.40
2023-02-11T10:53:34.241Z,100043.70
2023-02-11T10:56:00.149Z,100063.15
2023-02-11T10:58:28.778Z,100043.14
2023-02-11T11:00:55.789Z,100033.59
2023-02-11T11:03:48.357Z,100030.16
2023-02-11T11:06:14.291Z,100044.23
2023-02-11T11:08:48.767Z,100056.96
2023-02-11T11:11:16.950Z,100033.33
2023-02-11T11:13:52.208Z,100024.27
2023-02-11T11:16:28.159Z,100017.39
2023-02-11T11:19:06.642Z,99993.38
2023-02-11T11:21:36.360Z,99994.93
2023-02-11T11:24:02.742Z,100010.45
2023-02-11T11:26:45.991Z,99986.35
2023-02-11T11:29:22.714Z,99992.09
2023-02-11T11:32:00.556Z,100008.41
2023-02-11T11:34:28.966Z,99990.85
2023-02-11T11:36:56.033Z,99957.64
2023-02-11T11:39:23.080Z,99918.96
2023-02-11T11:41:54.048Z,99912.89
2023-02-11T11:44:31.231Z,99929.98
2023-02-11T11:47:12.993Z,99931.47
2023-02-11T11:49:42.499Z,99942.91
2023-02-11T11:52:20.421Z,99947.57
2023-02-11T11:54:51.156Z,99950.16
2023-02-11T11:57:23.514Z,99963.94
2023-02-11T11:59:49.542Z,99972.40
2023-02-11T12:02:44.034Z,100002.16
2023-02-11T12:05:36.995Z,100014.56
2023-02-11T12:08:16.506Z,100015.39
2023-02-11T12:10:54.626Z,100019.40
2023-02-11T12:13:52.902Z,100025.83
2023-02-11T12:16:53.321Z,100030.46
2023-02-11T12:19:31.654Z,100039.91
2023-02-11T12:22:04.915Z,100041.77
2023-02-11T12:24:56.684Z,100042.19
2023-02-11T12:27:46.871Z,100037.58
2023-02-11T12:30:37.363Z,100021.27
2023-02-11T12:33:20.977Z,100009.83
2023-02-11T12:35:58.635Z,100005.71
2023-02-11T12:39:03.016Z,100002.45
2023-02-11T12:42:11.075Z,100000.98
2023-02-11T12:44:44.839Z,99995.48
2023-02-11T12:47:30.310Z,99991.51
2023-02-11T12:50:32.582Z,99988.42
2023-02-11T12:53:18.237Z,99986.31
2023-02-11T12:55:45.523Z,99991.42
2023-02-11T12:58:29.724Z,99990.92
2023-02-11T13:01:09.046Z,99980.98
2023-02-11T13:03:47.391Z,99978.45
2023-02-11T13:06:19.906Z,99980.30
2023-02-11T13:08:51.674Z,99985.52
2023-02-11T13:11:37.591Z,99988.63
2023-02-11T13:14:04.223Z,99985.59
2023-02-11T13:16:44.791Z,99985.62
2023-02-11T13:19:13.555Z,99987.98
2023-02-11T13:21:42.464Z,99993.84
2023-02-11T13:24:08.550Z,99994.52
2023-02-11T13:26:58.839Z,99991.25
2023-02-11T13:29:32.966Z,99994.74
2023-02-11T13:32:06.745Z,99992.51
2023-02-11T13:34:41.577Z,99997.45
2023-02-11T13:37:33.359Z,99996.71
2023-02-11T13:40:07.013Z,99971.73
2023-02-11T13:42:34.433Z,99980.39
2023-02-11T13:45:00.413Z,99986.09
2023-02-11T13:47:31.151Z,99990.25
2023-02-11T13:49:57.262Z,99990.09
2023-02-11T13:52:31.468Z,99990.99
2023-02-11T13:55:06.247Z,99983.86
2023-02-11T13:57:34.533Z,99978.04
2023-02-11T14:00:05.541Z,99981.66
2023-02-11T14:02:53.724Z,99974.92
2023-02-11T14:05:48.024Z,99977.70
2023-02-11T14:08:39.421Z,99977.39
2023-02-11T14:11:36.336Z,99975.80
2023-02-11T14:14:13.831Z,99969.33
2023-02-11T14:17:00.809Z,99977.71
2023-02-11T14:19:33.078Z,99979.79
2023-02-11T14:22:12.770Z,99980.50
2023-02-11T14:24:44.698Z,99982.46
2023-02-11T14:27:15.257Z,99985.98
2023-02-11T14:29:50.442Z,99990.94
2023-02-11T14:32:45.079Z,99993.42
2023-02-11T14:35:27.291Z,99991.56
2023-02-11T14:38:24.360Z,100002.17
2023-02-11T14:41:09.129Z,99995.63
2023-02-11T14:43:46.825Z,100000.98
2023-02-11T14:46:14.394Z,100008.09
2023-02-11T14:48:44.350Z,100011.97
2023-02-11T14:51:12.345Z,100014.90
2023-02-11T14:53:41.030Z,100013.55
2023-02-11T14:56:17.499Z,100014.13
2023-02-11T14:58:48.246Z,100019.18
2023-02-11T15:01:35.088Z,100021.31
2023-02-11T15:04:02.862Z,100022.67
2023-02-11T15:06:32.124Z,100021.33
2023-02-11T15:09:20.063Z,100023.06
2023-02-11T15:11:47.310Z,100024.20
2023-02-11T15:14:33.007Z,100023.29
2023-02-11T15:17:01.128Z,100023.86
2023-02-11T15:19:38.962Z,100023.61
2023-02-11T15:22:06.421Z,100023.92
2023-02-11T15:24:34.714Z,100017.30
2023-02-11T15:27:01.763Z,100019.48
2023-02-11T15:29:33.995Z,100023.73
2023-02-11T15:32:21.180Z,100020.20
2023-02-11T15:34:48.654Z,100020.64
2023-02-11T15:37:25.886Z,100022.89
2023-02-11T15:39:52.605Z,100023.02
2023-02-11T15:42:28.743Z,100024.83
2023-02-11T15:45:14.103Z,100032.27
2023-02-11T15:47:41.830Z,100026.23
2023-02-11T15:50:18.977Z,100037.24
2023-02-11T15:52:45.231Z,100035.17
2023-02-11T15:55:13.185Z,100028.88
2023-02-11T15:57:42.740Z,100029.80
2023-02-11T16:00:16.193Z,100037.52
2023-02-11T16:02:44.707Z,100038.53
2023-02-11T16:05:33.822Z,100036.04
2023-02-11T16:08:00.120Z,100045.02
2023-02-11T16:10:33.702Z,100044.18
2023-02-11T16:12:59.659Z,100043.27
2023-02-11T16:15:34.547Z,100039.14
2023-02-11T16:18:01.608Z,100046.54
2023-02-11T16:20:27.445Z,100056.75
2023-02-11T16:22:53.403Z,100059.80
2023-02-11T16:25:20.203Z,100058.55
2023-02-11T16:27:53.123Z,100051.29
2023-02-11T16:30:29.152Z,100053.02
2023-02-11T16:32:55.148Z,100060.29
2023-02-11T16:35:21.116Z,100054.09
2023-02-11T16:37:47.085Z,100056.91
2023-02-11T16:40:13.738Z,100057.30
2023-02-11T16:42:39.953Z,100063.39
2023-02-11T16:45:06.790Z,100059.84
2023-02-11T16:47:34.850Z,100060.90
2023-02-11T16:50:00.813Z,100069.14
2023-02-11T16:52:26.934Z,100074.04
2023-02-11T16:54:52.918Z,100074.04
2023-02-11T16:57:23.604Z,100075.62
2023-02-11T16:59:49.585Z,100075.75
2023-02-11T17:02:29.879Z,100080.42
2023-02-11T17:04:58.540Z,100083.55
2023-02-11T17:07:24.568Z,100087.77
2023-02-11T17:09:51.644Z,100087.48
2023-02-11T17:12:18.040Z,100096.17
2023-02-11T17:14:43.965Z,100098.81
2023-02-11T17:17:10.508Z,100101.71
2023-02-11T17:19:36.623Z,100101.73
2023-02-11T17:22:02.761Z,100107.14
2023-02-11T17:24:28.752Z,100114.82
2023-02-11T17:26:55.017Z,100114.98
2023-02-11T17:29:23.250Z,100120.50
2023-02-11T17:31:51.247Z,100123.95
2023-02-11T17:34:17.964Z,100127.29
2023-02-11T17:36:44.225Z,100134.17
2023-02-11T17:39:10.203Z,100129.90
2023-02-11T17:41:36.907Z,100137.30
2023-02-11T17:44:02.978Z,100139.95
2023-02-11T17:46:29.029Z,100144.36
2023-02-11T17:48:55.273Z,100151.50
2023-02-11T17:51:23.214Z,100157.17
2023-02-11T17:53:49.273Z,100159.97
2023-02-11T17:56:15.196Z,100165.77
2023-02-11T17:58:41.115Z,100164.38
2023-02-11T18:01:07.067Z,100168.73
2023-02-11T18:03:33.251Z,100169.98
2023-02-11T18:06:00.244Z,100169.84
2023-02-11T18:08:26.139Z,100168.82
2023-02-11T18:10:52.442Z,100176.11
2023-02-11T18:13:18.374Z,100177.03
2023-02-11T18:15:44.388Z,100177.96
2023-02-11T18:18:10.316Z,100183.42
2023-02-11T18:20:36.251Z,100185.53
2023-02-11T18:23:02.207Z,100190.39
2023-02-11T18:25:29.320Z,100191.91
2023-02-11T18:27:55.836Z,100193.84
2023-02-11T18:30:21.979Z,100193.25
2023-02-11T18:32:52.879Z,100195.52
2023-02-11T18:35:19.469Z,100197.16
2023-02-11T18:37:45.413Z,100196.23
2023-02-11T18:40:12.300Z,100195.89
2023-02-11T18:42:38.443Z,100193.78
2023-02-11T18:45:09.009Z,100197.73
2023-02-11T18:47:37.193Z,100201.30
2023-02-11T18:50:04.983Z,100205.17
2023-02-11T18:52:31.242Z,100203.77
2023-02-11T18:54:57.126Z,100206.96
2023-02-11T18:57:23.298Z,100207.09
2023-02-11T18:59:50.135Z,100214.49
2023-02-11T19:02:17.131Z,100213.22
2023-02-11T19:04:43.241Z,100217.39
2023-02-11T19:07:09.547Z,100218.70
2023-02-11T19:09:35.505Z,100216.31
2023-02-11T19:12:01.996Z,100222.82
2023-02-11T19:14:30.802Z,100221.55
2023-02-11T19:16:58.523Z,100223.53
2023-02-11T19:19:27.378Z,100227.87
2023-02-11T19:21:59.301Z,100230.20
2023-02-11T19:24:28.627Z,100237.08
2023-02-11T19:26:56.670Z,100236.81
2023-02-11T19:29:39.074Z,100239.21
2023-02-11T19:32:05.534Z,100244.99
2023-02-11T19:34:31.784Z,100253.14
2023-02-11T19:37:00.242Z,100251.95
2023-02-11T19:39:26.887Z,100250.06
2023-02-11T19:41:55.757Z,100256.66
2023-02-11T19:44:21.802Z,100259.11
2023-02-11T19:46:49.520Z,100263.08
2023-02-11T19:49:16.902Z,100262.64
2023-02-11T19:51:43.072Z,100269.30
2023-02-11T19:54:09.451Z,100276.27
2023-02-11T19:56:37.224Z,100273.61
2023-02-11T19:59:03.804Z,100277.88
2023-02-11T20:01:32.223Z,100287.70
2023-02-11T20:03:58.665Z,100292.52
2023-02-11T20:06:27.431Z,100293.90
2023-02-11T20:08:57.259Z,100296.25
2023-02-11T20:11:24.834Z,100302.89
2023-02-11T20:13:50.966Z,100303.80
2023-02-11T20:16:19.042Z,100306.02
2023-02-11T20:18:45.780Z,100311.79
2023-02-11T20:21:14.451Z,100312.37
2023-02-11T20:23:40.553Z,100311.86
2023-02-11T20:26:18.562Z,100310.41
2023-02-11T20:28:46.351Z,100316.88
2023-02-11T20:31:12.444Z,100320.13
2023-02-11T20:33:38.920Z,100329.12
2023-02-11T20:36:13.429Z,100331.41
2023-02-11T20:38:39.499Z,100335.16
2023-02-11T20:41:13.544Z,100332.51
2023-02-11T20:43:45.439Z,100335.25
2023-02-11T20:46:12.084Z,100342.30
2023-02-11T20:48:53.940Z,100345.46
2023-02-11T20:51:22.378Z,100355.06
2023-02-11T20:53:50.448Z,100359.63
2023-02-11T20:56:18.397Z,100367.81
2023-02-11T20:58:44.456Z,100370.69
2023-02-11T21:01:18.650Z,100374.09
2023-02-11T21:03:48.697Z,100381.79
2023-02-11T21:06:14.973Z,100383.29
2023-02-11T21:08:40.997Z,100388.05
2023-02-11T21:11:10.339Z,100393.91
2023-02-11T21:13:37.286Z,100393.79
2023-02-11T21:16:03.861Z,100403.25
2023-02-11T21:18:29.864Z,100400.13
2023-02-11T21:20:56.141Z,100407.45
2023-02-11T21:23:22.325Z,100409.27
2023-02-11T21:25:48.404Z,100411.79
2023-02-11T21:28:14.511Z,100415.20
2023-02-11T21:30:41.384Z,100414.48
2023-02-11T21:33:07.499Z,100416.09
2023-02-11T21:35:34.245Z,100420.14
2023-02-11T21:38:00.367Z,100421.27
2023-02-11T21:40:29.150Z,100427.11
2023-02-11T21:42:55.548Z,100435.83
2023-02-11T21:45:22.404Z,100440.10
2023-02-11T21:47:48.358Z,100445.34
2023-02-11T21:50:14.343Z,100450.04
2023-02-11T21:52:40.302Z,100449.95
2023-02-11T21:55:06.417Z,100454.52
2023-02-11T21:57:32.376Z,100455.17
2023-02-11T21:59:58.502Z,100464.98
2023-02-11T22:02:24.403Z,100479.36
2023-02-11T22:04:50.390Z,100485.96
2023-02-11T22:07:16.514Z,100488.80
2023-02-11T22:09:42.474Z,100496.20
2023-02-11T22:12:08.385Z,100498.98
2023-02-11T22:14:35.261Z,100498.40
2023-02-11T22:17:01.225Z,100501.50
2023-02-11T22:19:27.194Z,100507.84
2023-02-11T22:21:53.069Z,100511.34
2023-02-11T22:24:18.949Z,100514.98
2023-02-11T22:26:44.819Z,100522.35
2023-02-11T22:29:11.679Z,100529.00
2023-02-11T22:31:37.958Z,100536.69
2023-02-11T22:34:04.217Z,100546.64
2023-02-11T22:36:32.527Z,100547.40
2023-02-11T22:39:06.275Z,100553.67
2023-02-11T22:41:32.887Z,100558.79
2023-02-11T22:43:58.920Z,100561.88
2023-02-11T22:46:25.094Z,100565.59
2023-02-11T22:48:51.529Z,100570.26
2023-02-11T22:51:19.859Z,100574.60
2023-02-11T22:53:53.725Z,100576.89
2023-02-11T22:56:20.043Z,100577.70
2023-02-11T22:58:46.209Z,100579.59
2023-02-11T23:01:12.302Z,100577.60
2023-02-11T23:03:38.430Z,100584.38
2023-02-11T23:06:04.761Z,100587.26
2023-02-11T23:08:31.328Z,100589.36
2023-02-11T23:11:08.431Z,100597.33
2023-02-11T23:13:35.674Z,100598.84
2023-02-11T23:16:06.937Z,100602.35
2023-02-11T23:18:33.943Z,100603.95
2023-02-11T23:21:10.137Z,100602.43
2023-02-11T23:23:38.483Z,100613.30
2023-02-11T23:26:04.642Z,100616.24
2023-02-11T23:28:30.903Z,100616.77
2023-02-11T23:30:56.998Z,100619.56
2023-02-11T23:33:22.953Z,100617.05
2023-02-11T23:35:49.105Z,100619.92
2023-02-11T23:38:15.172Z,100624.85
2023-02-11T23:40:41.435Z,100628.89
2023-02-11T23:43:07.881Z,100627.89
2023-02-11T23:45:33.936Z,100629.11
2023-02-11T23:47:59.956Z,100626.90
2023-02-11T23:50:25.867Z,100634.71
2023-02-11T23:52:51.811Z,100637.30
2023-02-11T23:55:17.798Z,100640.45
2023-02-11T23:57:44.030Z,100642.82
